Terminal Aerodrome Forecast
Issued by NWS

Home | Current Version | Previous Version | Text Only | Print | Product List | Glossary On
Versions: 1 2 3 4 5 6 7 8 9 10 11 12 13 14 15 16 17 18
053
FTUS43 KBIS 140550 AAA
TAFMOT
TAF AMD
KMOT 140550Z 1406/1506 13008KT 1SM -SN SCT005 OVC015
     FM140800 25007KT 3SM -SN SCT005 OVC015
      TEMPO 1408/1411 4SM -FZDZ BR BKN005 OVC015
     FM141100 29009KT P6SM OVC015
     FM141400 28010KT P6SM OVC010
     FM142000 28011KT P6SM BKN060=

USA.gov is the U.S. government's official web portal to all federal, state and local government web resources and services.